sensor_id;sensor_type;location;lat;lon;timestamp;P1;P2;P0
64114;PMS5003;62188;35.640;139.748;2023-01-20T00:01:27;27;26;
64114;PMS5003;62188;35.640;139.748;2023-01-20T00:03:53;33;31;
64114;PMS5003;62188;35.640;139.748;2023-01-20T00:06:17;30;28;
64114;PMS5003;62188;35.640;139.748;2023-01-20T00:08:43;34;31;
64114;PMS5003;62188;35.640;139.748;2023-01-20T00:11:09;28;26;
64114;PMS5003;62188;35.640;139.748;2023-01-20T00:13:33;30;28;
64114;PMS5003;62188;35.640;139.748;2023-01-20T00:16:00;28;26;
64114;PMS5003;62188;35.640;139.748;2023-01-20T00:18:23;32;31;
64114;PMS5003;62188;35.640;139.748;2023-01-20T00:20:48;29;26;
64114;PMS5003;62188;35.640;139.748;2023-01-20T00:23:14;28;27;
64114;PMS5003;62188;35.640;139.748;2023-01-20T00:25:39;30;28;
64114;PMS5003;62188;35.640;139.748;2023-01-20T00:28:04;39;35;
64114;PMS5003;62188;35.640;139.748;2023-01-20T00:30:30;28;27;
64114;PMS5003;62188;35.640;139.748;2023-01-20T00:32:55;30;28;
64114;PMS5003;62188;35.640;139.748;2023-01-20T00:35:20;25;25;
64114;PMS5003;62188;35.640;139.748;2023-01-20T00:37:45;30;29;
64114;PMS5003;62188;35.640;139.748;2023-01-20T00:40:11;29;27;
64114;PMS5003;62188;35.640;139.748;2023-01-20T00:42:36;32;31;
64114;PMS5003;62188;35.640;139.748;2023-01-20T00:45:02;33;31;
64114;PMS5003;62188;35.640;139.748;2023-01-20T00:47:27;34;28;
64114;PMS5003;62188;35.640;139.748;2023-01-20T00:49:53;35;33;
64114;PMS5003;62188;35.640;139.748;2023-01-20T00:52:18;30;28;
64114;PMS5003;62188;35.640;139.748;2023-01-20T00:54:43;31;29;
64114;PMS5003;62188;35.640;139.748;2023-01-20T00:57:09;27;26;
64114;PMS5003;62188;35.640;139.748;2023-01-20T00:59:35;26;25;
64114;PMS5003;62188;35.640;139.748;2023-01-20T01:02:00;33;31;
64114;PMS5003;62188;35.640;139.748;2023-01-20T01:04:25;28;28;
64114;PMS5003;62188;35.640;139.748;2023-01-20T01:06:51;32;31;
64114;PMS5003;62188;35.640;139.748;2023-01-20T01:09:16;33;33;
64114;PMS5003;62188;35.640;139.748;2023-01-20T01:11:42;31;29;
64114;PMS5003;62188;35.640;139.748;2023-01-20T01:14:08;39;37;
64114;PMS5003;62188;35.640;139.748;2023-01-20T01:16:32;50;46;
64114;PMS5003;62188;35.640;139.748;2023-01-20T01:18:59;42;40;
64114;PMS5003;62188;35.640;139.748;2023-01-20T01:21:24;35;33;
64114;PMS5003;62188;35.640;139.748;2023-01-20T01:23:51;34;32;
64114;PMS5003;62188;35.640;139.748;2023-01-20T01:26:16;28;27;
64114;PMS5003;62188;35.640;139.748;2023-01-20T01:28:41;33;32;
64114;PMS5003;62188;35.640;139.748;2023-01-20T01:31:06;31;30;
64114;PMS5003;62188;35.640;139.748;2023-01-20T01:33:32;30;30;
64114;PMS5003;62188;35.640;139.748;2023-01-20T01:35:59;31;29;
64114;PMS5003;62188;35.640;139.748;2023-01-20T01:38:23;31;30;
64114;PMS5003;62188;35.640;139.748;2023-01-20T01:40:48;32;31;
64114;PMS5003;62188;35.640;139.748;2023-01-20T01:43:17;31;30;
64114;PMS5003;62188;35.640;139.748;2023-01-20T01:45:39;28;28;
64114;PMS5003;62188;35.640;139.748;2023-01-20T01:48:06;32;31;
64114;PMS5003;62188;35.640;139.748;2023-01-20T01:50:32;30;30;
64114;PMS5003;62188;35.640;139.748;2023-01-20T01:52:56;30;28;
64114;PMS5003;62188;35.640;139.748;2023-01-20T01:55:23;29;27;
64114;PMS5003;62188;35.640;139.748;2023-01-20T01:57:47;30;29;
64114;PMS5003;62188;35.640;139.748;2023-01-20T02:00:12;34;30;
64114;PMS5003;62188;35.640;139.748;2023-01-20T02:02:38;33;32;
64114;PMS5003;62188;35.640;139.748;2023-01-20T02:05:04;32;30;
64114;PMS5003;62188;35.640;139.748;2023-01-20T02:07:30;29;29;
64114;PMS5003;62188;35.640;139.748;2023-01-20T02:09:55;29;28;
64114;PMS5003;62188;35.640;139.748;2023-01-20T02:12:20;32;30;
64114;PMS5003;62188;35.640;139.748;2023-01-20T02:14:46;31;28;
64114;PMS5003;62188;35.640;139.748;2023-01-20T02:17:11;30;30;
64114;PMS5003;62188;35.640;139.748;2023-01-20T02:22:06;31;29;
64114;PMS5003;62188;35.640;139.748;2023-01-20T02:24:36;34;33;
64114;PMS5003;62188;35.640;139.748;2023-01-20T02:26:55;34;33;
64114;PMS5003;62188;35.640;139.748;2023-01-20T02:34:11;35;34;
64114;PMS5003;62188;35.640;139.748;2023-01-20T02:36:37;35;32;
64114;PMS5003;62188;35.640;139.748;2023-01-20T02:39:03;32;32;
64114;PMS5003;62188;35.640;139.748;2023-01-20T02:41:30;32;31;
64114;PMS5003;62188;35.640;139.748;2023-01-20T02:43:55;34;33;
64114;PMS5003;62188;35.640;139.748;2023-01-20T02:46:20;34;34;
64114;PMS5003;62188;35.640;139.748;2023-01-20T02:48:45;29;28;
64114;PMS5003;62188;35.640;139.748;2023-01-20T02:51:10;27;27;
64114;PMS5003;62188;35.640;139.748;2023-01-20T02:53:35;29;28;
64114;PMS5003;62188;35.640;139.748;2023-01-20T02:55:59;30;28;
64114;PMS5003;62188;35.640;139.748;2023-01-20T02:58:26;30;29;
64114;PMS5003;62188;35.640;139.748;2023-01-20T03:00:50;31;30;
64114;PMS5003;62188;35.640;139.748;2023-01-20T03:03:16;30;29;
64114;PMS5003;62188;35.640;139.748;2023-01-20T03:05:42;33;32;
64114;PMS5003;62188;35.640;139.748;2023-01-20T03:08:07;33;32;
64114;PMS5003;62188;35.640;139.748;2023-01-20T03:10:32;35;33;
64114;PMS5003;62188;35.640;139.748;2023-01-20T03:12:58;35;33;
64114;PMS5003;62188;35.640;139.748;2023-01-20T03:15:24;43;39;
64114;PMS5003;62188;35.640;139.748;2023-01-20T03:17:49;40;38;
64114;PMS5003;62188;35.640;139.748;2023-01-20T03:20:14;34;34;
64114;PMS5003;62188;35.640;139.748;2023-01-20T03:22:45;41;38;
64114;PMS5003;62188;35.640;139.748;2023-01-20T03:25:05;38;37;
64114;PMS5003;62188;35.640;139.748;2023-01-20T03:27:30;36;35;
64114;PMS5003;62188;35.640;139.748;2023-01-20T03:29:56;34;34;
64114;PMS5003;62188;35.640;139.748;2023-01-20T03:32:22;39;37;
64114;PMS5003;62188;35.640;139.748;2023-01-20T03:34:47;39;37;
64114;PMS5003;62188;35.640;139.748;2023-01-20T03:37:13;39;38;
64114;PMS5003;62188;35.640;139.748;2023-01-20T03:39:44;40;37;
64114;PMS5003;62188;35.640;139.748;2023-01-20T03:42:05;41;38;
64114;PMS5003;62188;35.640;139.748;2023-01-20T03:44:31;42;41;
64114;PMS5003;62188;35.640;139.748;2023-01-20T03:46:56;41;41;
64114;PMS5003;62188;35.640;139.748;2023-01-20T03:49:26;46;46;
64114;PMS5003;62188;35.640;139.748;2023-01-20T03:51:50;47;42;
64114;PMS5003;62188;35.640;139.748;2023-01-20T03:54:14;39;38;
64114;PMS5003;62188;35.640;139.748;2023-01-20T03:56:39;39;38;
64114;PMS5003;62188;35.640;139.748;2023-01-20T03:59:02;44;43;
64114;PMS5003;62188;35.640;139.748;2023-01-20T04:01:29;47;44;
64114;PMS5003;62188;35.640;139.748;2023-01-20T04:03:53;44;42;
64114;PMS5003;62188;35.640;139.748;2023-01-20T04:06:20;42;40;
64114;PMS5003;62188;35.640;139.748;2023-01-20T04:08:46;44;42;
64114;PMS5003;62188;35.640;139.748;2023-01-20T04:11:10;46;43;
64114;PMS5003;62188;35.640;139.748;2023-01-20T04:13:35;45;44;
64114;PMS5003;62188;35.640;139.748;2023-01-20T04:16:09;43;41;
64114;PMS5003;62188;35.640;139.748;2023-01-20T04:18:26;53;50;
64114;PMS5003;62188;35.640;139.748;2023-01-20T04:20:51;48;44;
64114;PMS5003;62188;35.640;139.748;2023-01-20T04:23:18;45;44;
64114;PMS5003;62188;35.640;139.748;2023-01-20T04:25:42;53;50;
64114;PMS5003;62188;35.640;139.748;2023-01-20T04:28:07;43;42;
64114;PMS5003;62188;35.640;139.748;2023-01-20T04:30:32;54;50;
64114;PMS5003;62188;35.640;139.748;2023-01-20T04:32:58;48;47;
64114;PMS5003;62188;35.640;139.748;2023-01-20T04:35:23;59;53;
64114;PMS5003;62188;35.640;139.748;2023-01-20T04:37:48;49;48;
64114;PMS5003;62188;35.640;139.748;2023-01-20T04:40:14;58;58;
64114;PMS5003;62188;35.640;139.748;2023-01-20T04:42:39;56;52;
64114;PMS5003;62188;35.640;139.748;2023-01-20T04:45:05;52;49;
64114;PMS5003;62188;35.640;139.748;2023-01-20T04:47:30;47;45;
64114;PMS5003;62188;35.640;139.748;2023-01-20T04:49:56;55;51;
64114;PMS5003;62188;35.640;139.748;2023-01-20T04:52:21;50;49;
64114;PMS5003;62188;35.640;139.748;2023-01-20T04:54:47;49;48;
64114;PMS5003;62188;35.640;139.748;2023-01-20T04:57:12;53;52;
64114;PMS5003;62188;35.640;139.748;2023-01-20T04:59:37;55;51;
64114;PMS5003;62188;35.640;139.748;2023-01-20T05:02:03;51;50;
64114;PMS5003;62188;35.640;139.748;2023-01-20T05:04:28;58;55;
64114;PMS5003;62188;35.640;139.748;2023-01-20T05:06:53;65;62;
64114;PMS5003;62188;35.640;139.748;2023-01-20T05:09:19;53;52;
64114;PMS5003;62188;35.640;139.748;2023-01-20T05:11:44;60;57;
64114;PMS5003;62188;35.640;139.748;2023-01-20T05:14:11;67;59;
64114;PMS5003;62188;35.640;139.748;2023-01-20T05:16:36;62;61;
64114;PMS5003;62188;35.640;139.748;2023-01-20T05:19:01;59;58;
64114;PMS5003;62188;35.640;139.748;2023-01-20T05:21:27;55;53;
64114;PMS5003;62188;35.640;139.748;2023-01-20T05:23:52;55;54;
64114;PMS5003;62188;35.640;139.748;2023-01-20T05:26:17;56;52;
64114;PMS5003;62188;35.640;139.748;2023-01-20T05:28:43;62;60;
64114;PMS5003;62188;35.640;139.748;2023-01-20T05:31:08;60;57;
64114;PMS5003;62188;35.640;139.748;2023-01-20T05:33:34;55;54;
64114;PMS5003;62188;35.640;139.748;2023-01-20T05:36:03;50;48;
64114;PMS5003;62188;35.640;139.748;2023-01-20T05:38:25;52;51;
64114;PMS5003;62188;35.640;139.748;2023-01-20T05:40:50;46;46;
64114;PMS5003;62188;35.640;139.748;2023-01-20T05:43:16;48;42;
64114;PMS5003;62188;35.640;139.748;2023-01-20T05:45:42;39;38;
64114;PMS5003;62188;35.640;139.748;2023-01-20T05:48:07;45;42;
64114;PMS5003;62188;35.640;139.748;2023-01-20T05:50:33;46;43;
64114;PMS5003;62188;35.640;139.748;2023-01-20T05:52:58;46;40;
64114;PMS5003;62188;35.640;139.748;2023-01-20T05:55:23;37;35;
64114;PMS5003;62188;35.640;139.748;2023-01-20T05:57:49;39;37;
64114;PMS5003;62188;35.640;139.748;2023-01-20T06:00:15;34;32;
64114;PMS5003;62188;35.640;139.748;2023-01-20T06:02:40;35;33;
64114;PMS5003;62188;35.640;139.748;2023-01-20T06:05:06;42;40;
64114;PMS5003;62188;35.640;139.748;2023-01-20T06:07:31;42;41;
64114;PMS5003;62188;35.640;139.748;2023-01-20T06:09:56;55;50;
64114;PMS5003;62188;35.640;139.748;2023-01-20T06:12:22;52;49;
64114;PMS5003;62188;35.640;139.748;2023-01-20T06:14:47;60;58;
64114;PMS5003;62188;35.640;139.748;2023-01-20T06:17:13;55;54;
64114;PMS5003;62188;35.640;139.748;2023-01-20T06:19:38;50;50;
64114;PMS5003;62188;35.640;139.748;2023-01-20T06:22:05;52;50;
64114;PMS5003;62188;35.640;139.748;2023-01-20T06:24:29;53;53;
64114;PMS5003;62188;35.640;139.748;2023-01-20T06:26:55;52;51;
64114;PMS5003;62188;35.640;139.748;2023-01-20T06:29:21;55;50;
64114;PMS5003;62188;35.640;139.748;2023-01-20T06:31:46;50;49;
64114;PMS5003;62188;35.640;139.748;2023-01-20T06:34:12;50;45;
64114;PMS5003;62188;35.640;139.748;2023-01-20T06:36:37;43;42;
64114;PMS5003;62188;35.640;139.748;2023-01-20T06:39:03;38;38;
64114;PMS5003;62188;35.640;139.748;2023-01-20T06:41:28;38;36;
64114;PMS5003;62188;35.640;139.748;2023-01-20T06:43:54;35;34;
64114;PMS5003;62188;35.640;139.748;2023-01-20T06:46:20;30;30;
64114;PMS5003;62188;35.640;139.748;2023-01-20T06:48:46;30;30;
64114;PMS5003;62188;35.640;139.748;2023-01-20T06:51:11;32;31;
64114;PMS5003;62188;35.640;139.748;2023-01-20T06:53:36;31;30;
64114;PMS5003;62188;35.640;139.748;2023-01-20T06:56:02;35;34;
64114;PMS5003;62188;35.640;139.748;2023-01-20T06:58:27;34;32;
64114;PMS5003;62188;35.640;139.748;2023-01-20T07:00:53;31;29;
64114;PMS5003;62188;35.640;139.748;2023-01-20T07:03:17;33;33;
64114;PMS5003;62188;35.640;139.748;2023-01-20T07:05:42;41;38;
64114;PMS5003;62188;35.640;139.748;2023-01-20T07:08:08;36;35;
64114;PMS5003;62188;35.640;139.748;2023-01-20T07:10:34;32;32;
64114;PMS5003;62188;35.640;139.748;2023-01-20T07:12:59;35;33;
64114;PMS5003;62188;35.640;139.748;2023-01-20T07:15:24;36;36;
64114;PMS5003;62188;35.640;139.748;2023-01-20T07:17:50;36;35;
64114;PMS5003;62188;35.640;139.748;2023-01-20T07:20:15;33;33;
64114;PMS5003;62188;35.640;139.748;2023-01-20T07:22:40;42;38;
64114;PMS5003;62188;35.640;139.748;2023-01-20T07:25:06;40;35;
64114;PMS5003;62188;35.640;139.748;2023-01-20T07:27:31;31;30;
64114;PMS5003;62188;35.640;139.748;2023-01-20T07:29:56;35;33;
64114;PMS5003;62188;35.640;139.748;2023-01-20T07:32:22;50;47;
64114;PMS5003;62188;35.640;139.748;2023-01-20T07:34:48;42;38;
64114;PMS5003;62188;35.640;139.748;2023-01-20T07:37:13;37;35;
64114;PMS5003;62188;35.640;139.748;2023-01-20T07:39:39;37;37;
64114;PMS5003;62188;35.640;139.748;2023-01-20T07:42:04;34;32;
64114;PMS5003;62188;35.640;139.748;2023-01-20T07:44:30;31;30;
64114;PMS5003;62188;35.640;139.748;2023-01-20T07:46:55;33;31;
64114;PMS5003;62188;35.640;139.748;2023-01-20T07:49:20;32;30;
64114;PMS5003;62188;35.640;139.748;2023-01-20T07:51:46;31;29;
64114;PMS5003;62188;35.640;139.748;2023-01-20T07:54:12;28;28;
64114;PMS5003;62188;35.640;139.748;2023-01-20T07:56:37;33;31;
64114;PMS5003;62188;35.640;139.748;2023-01-20T07:59:02;34;33;
64114;PMS5003;62188;35.640;139.748;2023-01-20T08:01:28;35;35;
64114;PMS5003;62188;35.640;139.748;2023-01-20T08:03:53;40;37;
64114;PMS5003;62188;35.640;139.748;2023-01-20T08:06:19;33;31;
64114;PMS5003;62188;35.640;139.748;2023-01-20T08:08:44;34;34;
64114;PMS5003;62188;35.640;139.748;2023-01-20T08:11:10;30;29;
64114;PMS5003;62188;35.640;139.748;2023-01-20T08:13:35;26;25;
64114;PMS5003;62188;35.640;139.748;2023-01-20T08:16:01;33;30;
64114;PMS5003;62188;35.640;139.748;2023-01-20T08:18:25;25;25;
64114;PMS5003;62188;35.640;139.748;2023-01-20T08:20:51;27;25;
64114;PMS5003;62188;35.640;139.748;2023-01-20T08:23:16;28;26;
64114;PMS5003;62188;35.640;139.748;2023-01-20T08:25:42;26;25;
64114;PMS5003;62188;35.640;139.748;2023-01-20T08:28:07;23;22;
64114;PMS5003;62188;35.640;139.748;2023-01-20T08:30:32;28;25;
64114;PMS5003;62188;35.640;139.748;2023-01-20T08:32:58;22;20;
64114;PMS5003;62188;35.640;139.748;2023-01-20T08:35:24;26;26;
64114;PMS5003;62188;35.640;139.748;2023-01-20T08:37:49;25;23;
64114;PMS5003;62188;35.640;139.748;2023-01-20T08:40:15;24;22;
64114;PMS5003;62188;35.640;139.748;2023-01-20T08:42:40;26;25;
64114;PMS5003;62188;35.640;139.748;2023-01-20T08:45:06;31;30;
64114;PMS5003;62188;35.640;139.748;2023-01-20T08:47:30;24;23;
64114;PMS5003;62188;35.640;139.748;2023-01-20T08:49:56;25;24;
64114;PMS5003;62188;35.640;139.748;2023-01-20T08:52:21;24;22;
64114;PMS5003;62188;35.640;139.748;2023-01-20T08:54:46;26;25;
64114;PMS5003;62188;35.640;139.748;2023-01-20T08:57:11;25;23;
64114;PMS5003;62188;35.640;139.748;2023-01-20T08:59:37;22;20;
64114;PMS5003;62188;35.640;139.748;2023-01-20T09:02:03;21;20;
64114;PMS5003;62188;35.640;139.748;2023-01-20T09:04:28;22;22;
64114;PMS5003;62188;35.640;139.748;2023-01-20T09:06:53;19;19;
64114;PMS5003;62188;35.640;139.748;2023-01-20T09:09:19;21;20;
64114;PMS5003;62188;35.640;139.748;2023-01-20T09:11:44;21;21;
64114;PMS5003;62188;35.640;139.748;2023-01-20T09:14:10;20;18;
64114;PMS5003;62188;35.640;139.748;2023-01-20T09:16:35;19;19;
64114;PMS5003;62188;35.640;139.748;2023-01-20T09:19:00;22;21;
64114;PMS5003;62188;35.640;139.748;2023-01-20T09:21:26;24;22;
64114;PMS5003;62188;35.640;139.748;2023-01-20T09:23:52;23;22;
64114;PMS5003;62188;35.640;139.748;2023-01-20T09:26:17;23;22;
64114;PMS5003;62188;35.640;139.748;2023-01-20T09:28:43;27;26;
64114;PMS5003;62188;35.640;139.748;2023-01-20T09:31:09;26;23;
64114;PMS5003;62188;35.640;139.748;2023-01-20T09:33:34;25;24;
64114;PMS5003;62188;35.640;139.748;2023-01-20T09:35:59;22;21;
64114;PMS5003;62188;35.640;139.748;2023-01-20T09:38:25;24;24;
64114;PMS5003;62188;35.640;139.748;2023-01-20T09:40:52;24;24;
64114;PMS5003;62188;35.640;139.748;2023-01-20T09:43:20;22;22;
64114;PMS5003;62188;35.640;139.748;2023-01-20T09:45:42;26;24;
64114;PMS5003;62188;35.640;139.748;2023-01-20T09:48:09;23;21;
64114;PMS5003;62188;35.640;139.748;2023-01-20T09:50:35;26;24;
64114;PMS5003;62188;35.640;139.748;2023-01-20T09:53:00;25;24;
64114;PMS5003;62188;35.640;139.748;2023-01-20T09:55:25;29;29;
64114;PMS5003;62188;35.640;139.748;2023-01-20T09:57:49;25;25;
64114;PMS5003;62188;35.640;139.748;2023-01-20T10:00:14;30;27;
64114;PMS5003;62188;35.640;139.748;2023-01-20T10:02:40;27;27;
64114;PMS5003;62188;35.640;139.748;2023-01-20T10:05:09;25;25;
64114;PMS5003;62188;35.640;139.748;2023-01-20T10:07:32;25;25;
64114;PMS5003;62188;35.640;139.748;2023-01-20T10:09:57;25;24;
64114;PMS5003;62188;35.640;139.748;2023-01-20T10:12:24;25;25;
64114;PMS5003;62188;35.640;139.748;2023-01-20T10:14:48;23;22;
64114;PMS5003;62188;35.640;139.748;2023-01-20T10:17:13;28;28;
64114;PMS5003;62188;35.640;139.748;2023-01-20T10:19:38;29;28;
64114;PMS5003;62188;35.640;139.748;2023-01-20T10:22:05;29;27;
64114;PMS5003;62188;35.640;139.748;2023-01-20T10:24:30;28;26;
64114;PMS5003;62188;35.640;139.748;2023-01-20T10:26:55;26;24;
64114;PMS5003;62188;35.640;139.748;2023-01-20T10:29:22;31;27;
64114;PMS5003;62188;35.640;139.748;2023-01-20T10:31:46;27;26;
64114;PMS5003;62188;35.640;139.748;2023-01-20T10:34:11;30;29;
64114;PMS5003;62188;35.640;139.748;2023-01-20T10:36:35;25;24;
64114;PMS5003;62188;35.640;139.748;2023-01-20T10:39:02;25;25;
64114;PMS5003;62188;35.640;139.748;2023-01-20T10:41:27;27;27;
64114;PMS5003;62188;35.640;139.748;2023-01-20T10:43:52;34;33;
64114;PMS5003;62188;35.640;139.748;2023-01-20T10:46:21;27;27;
64114;PMS5003;62188;35.640;139.748;2023-01-20T10:48:47;29;29;
64114;PMS5003;62188;35.640;139.748;2023-01-20T10:51:08;33;32;
64114;PMS5003;62188;35.640;139.748;2023-01-20T10:53:40;30;28;
64114;PMS5003;62188;35.640;139.748;2023-01-20T10:56:02;32;31;
64114;PMS5003;62188;35.640;139.748;2023-01-20T10:58:24;31;30;
64114;PMS5003;62188;35.640;139.748;2023-01-20T11:00:49;33;30;
64114;PMS5003;62188;35.640;139.748;2023-01-20T11:03:16;30;30;
64114;PMS5003;62188;35.640;139.748;2023-01-20T11:05:40;31;30;
64114;PMS5003;62188;35.640;139.748;2023-01-20T11:08:08;36;33;
64114;PMS5003;62188;35.640;139.748;2023-01-20T11:10:32;32;31;
64114;PMS5003;62188;35.640;139.748;2023-01-20T11:12:57;40;36;
64114;PMS5003;62188;35.640;139.748;2023-01-20T11:15:23;31;31;
64114;PMS5003;62188;35.640;139.748;2023-01-20T11:20:14;36;34;
64114;PMS5003;62188;35.640;139.748;2023-01-20T11:22:38;45;43;
64114;PMS5003;62188;35.640;139.748;2023-01-20T11:25:04;53;49;
64114;PMS5003;62188;35.640;139.748;2023-01-20T11:27:30;53;50;
64114;PMS5003;62188;35.640;139.748;2023-01-20T11:29:56;51;51;
64114;PMS5003;62188;35.640;139.748;2023-01-20T11:32:24;54;49;
64114;PMS5003;62188;35.640;139.748;2023-01-20T11:34:48;50;49;
64114;PMS5003;62188;35.640;139.748;2023-01-20T11:37:17;45;42;
64114;PMS5003;62188;35.640;139.748;2023-01-20T11:39:41;50;48;
64114;PMS5003;62188;35.640;139.748;2023-01-20T11:42:10;42;39;
64114;PMS5003;62188;35.640;139.748;2023-01-20T11:44:28;43;41;
64114;PMS5003;62188;35.640;139.748;2023-01-20T11:46:53;42;41;
64114;PMS5003;62188;35.640;139.748;2023-01-20T11:49:19;44;41;
64114;PMS5003;62188;35.640;139.748;2023-01-20T11:51:45;44;43;
64114;PMS5003;62188;35.640;139.748;2023-01-20T11:54:12;43;40;
64114;PMS5003;62188;35.640;139.748;2023-01-20T11:56:37;43;40;
64114;PMS5003;62188;35.640;139.748;2023-01-20T11:59:00;47;46;
64114;PMS5003;62188;35.640;139.748;2023-01-20T12:01:27;45;41;
64114;PMS5003;62188;35.640;139.748;2023-01-20T12:03:56;40;37;
64114;PMS5003;62188;35.640;139.748;2023-01-20T12:06:20;50;45;
64114;PMS5003;62188;35.640;139.748;2023-01-20T12:08:44;38;36;
64114;PMS5003;62188;35.640;139.748;2023-01-20T12:11:09;32;31;
64114;PMS5003;62188;35.640;139.748;2023-01-20T12:13:37;42;38;
64114;PMS5003;62188;35.640;139.748;2023-01-20T12:16:00;37;36;
64114;PMS5003;62188;35.640;139.748;2023-01-20T12:18:28;33;32;
64114;PMS5003;62188;35.640;139.748;2023-01-20T12:20:54;40;40;
64114;PMS5003;62188;35.640;139.748;2023-01-20T12:23:17;38;37;
64114;PMS5003;62188;35.640;139.748;2023-01-20T12:25:43;37;34;
64114;PMS5003;62188;35.640;139.748;2023-01-20T12:28:09;38;36;
64114;PMS5003;62188;35.640;139.748;2023-01-20T12:32:57;30;29;
64114;PMS5003;62188;35.640;139.748;2023-01-20T12:35:22;32;32;
64114;PMS5003;62188;35.640;139.748;2023-01-20T12:37:48;29;26;
64114;PMS5003;62188;35.640;139.748;2023-01-20T12:40:17;27;25;
64114;PMS5003;62188;35.640;139.748;2023-01-20T12:45:06;25;23;
64114;PMS5003;62188;35.640;139.748;2023-01-20T12:47:33;23;20;
64114;PMS5003;62188;35.640;139.748;2023-01-20T12:49:59;24;22;
64114;PMS5003;62188;35.640;139.748;2023-01-20T12:52:25;19;16;
64114;PMS5003;62188;35.640;139.748;2023-01-20T12:57:14;17;17;
64114;PMS5003;62188;35.640;139.748;2023-01-20T12:59:38;17;14;
64114;PMS5003;62188;35.640;139.748;2023-01-20T13:06:57;13;12;
64114;PMS5003;62188;35.640;139.748;2023-01-20T13:09:21;11;10;
64114;PMS5003;62188;35.640;139.748;2023-01-20T13:11:48;12;11;
64114;PMS5003;62188;35.640;139.748;2023-01-20T13:14:11;9;8;
64114;PMS5003;62188;35.640;139.748;2023-01-20T13:16:37;8;8;
64114;PMS5003;62188;35.640;139.748;2023-01-20T13:19:04;90;90;
64114;PMS5003;62188;35.640;139.748;2023-01-20T13:21:26;388;377;
64114;PMS5003;62188;35.640;139.748;2023-01-20T13:23:51;541;487;
64114;PMS5003;62188;35.640;139.748;2023-01-20T13:26:17;1363;1269;
64114;PMS5003;62188;35.640;139.748;2023-01-20T13:33:34;649;635;
64114;PMS5003;62188;35.640;139.748;2023-01-20T13:35:58;274;268;
64114;PMS5003;62188;35.640;139.748;2023-01-20T13:38:23;200;200;
64114;PMS5003;62188;35.640;139.748;2023-01-20T13:40:50;177;173;
64114;PMS5003;62188;35.640;139.748;2023-01-20T13:45:41;145;140;
64114;PMS5003;62188;35.640;139.748;2023-01-20T13:50:32;43;43;
64114;PMS5003;62188;35.640;139.748;2023-01-20T13:55:27;15;15;
64114;PMS5003;62188;35.640;139.748;2023-01-20T13:57:48;22;20;
64114;PMS5003;62188;35.640;139.748;2023-01-20T14:00:15;26;25;
64114;PMS5003;62188;35.640;139.748;2023-01-20T14:02:39;14;12;
64114;PMS5003;62188;35.640;139.748;2023-01-20T14:07:30;21;21;
64114;PMS5003;62188;35.640;139.748;2023-01-20T14:09:56;26;24;
64114;PMS5003;62188;35.640;139.748;2023-01-20T14:12:21;22;20;
64114;PMS5003;62188;35.640;139.748;2023-01-20T14:14:46;21;19;
64114;PMS5003;62188;35.640;139.748;2023-01-20T14:17:11;11;10;
64114;PMS5003;62188;35.640;139.748;2023-01-20T14:19:38;12;12;
64114;PMS5003;62188;35.640;139.748;2023-01-20T14:22:14;13;12;
64114;PMS5003;62188;35.640;139.748;2023-01-20T14:24:29;9;9;
64114;PMS5003;62188;35.640;139.748;2023-01-20T14:29:20;7;7;
64114;PMS5003;62188;35.640;139.748;2023-01-20T14:31:46;9;8;
64114;PMS5003;62188;35.640;139.748;2023-01-20T14:36:37;7;6;
64114;PMS5003;62188;35.640;139.748;2023-01-20T14:39:03;9;8;
64114;PMS5003;62188;35.640;139.748;2023-01-20T14:41:30;8;7;
64114;PMS5003;62188;35.640;139.748;2023-01-20T14:43:55;8;7;
64114;PMS5003;62188;35.640;139.748;2023-01-20T14:46:20;10;10;
64114;PMS5003;62188;35.640;139.748;2023-01-20T14:48:46;6;6;
64114;PMS5003;62188;35.640;139.748;2023-01-20T14:51:11;6;5;
64114;PMS5003;62188;35.640;139.748;2023-01-20T14:53:37;7;7;
64114;PMS5003;62188;35.640;139.748;2023-01-20T14:56:03;6;6;
64114;PMS5003;62188;35.640;139.748;2023-01-20T14:58:29;8;6;
64114;PMS5003;62188;35.640;139.748;2023-01-20T15:00:54;5;5;
64114;PMS5003;62188;35.640;139.748;2023-01-20T15:03:20;6;5;
64114;PMS5003;62188;35.640;139.748;2023-01-20T15:08:15;5;4;
64114;PMS5003;62188;35.640;139.748;2023-01-20T15:10:37;6;5;
64114;PMS5003;62188;35.640;139.748;2023-01-20T15:13:03;4;4;
64114;PMS5003;62188;35.640;139.748;2023-01-20T15:15:29;6;5;
64114;PMS5003;62188;35.640;139.748;2023-01-20T15:18:04;4;4;
64114;PMS5003;62188;35.640;139.748;2023-01-20T15:20:26;6;5;
64114;PMS5003;62188;35.640;139.748;2023-01-20T15:22:45;3;3;
64114;PMS5003;62188;35.640;139.748;2023-01-20T15:25:11;2;2;
64114;PMS5003;62188;35.640;139.748;2023-01-20T15:27:37;3;3;
64114;PMS5003;62188;35.640;139.748;2023-01-20T15:30:12;4;4;
64114;PMS5003;62188;35.640;139.748;2023-01-20T15:32:28;3;3;
64114;PMS5003;62188;35.640;139.748;2023-01-20T15:34:54;3;2;
64114;PMS5003;62188;35.640;139.748;2023-01-20T15:37:19;3;3;
64114;PMS5003;62188;35.640;139.748;2023-01-20T15:39:45;2;2;
64114;PMS5003;62188;35.640;139.748;2023-01-20T15:42:11;2;2;
64114;PMS5003;62188;35.640;139.748;2023-01-20T15:44:37;3;2;
64114;PMS5003;62188;35.640;139.748;2023-01-20T15:47:04;2;2;
64114;PMS5003;62188;35.640;139.748;2023-01-20T15:49:28;3;2;
64114;PMS5003;62188;35.640;139.748;2023-01-20T15:51:54;2;2;
64114;PMS5003;62188;35.640;139.748;2023-01-20T15:54:19;1;0;
64114;PMS5003;62188;35.640;139.748;2023-01-20T15:56:45;4;2;
64114;PMS5003;62188;35.640;139.748;2023-01-20T15:59:11;3;3;
64114;PMS5003;62188;35.640;139.748;2023-01-20T16:01:36;2;2;
64114;PMS5003;62188;35.640;139.748;2023-01-20T16:04:02;2;2;
64114;PMS5003;62188;35.640;139.748;2023-01-20T16:06:29;2;2;
64114;PMS5003;62188;35.640;139.748;2023-01-20T16:08:54;3;2;
64114;PMS5003;62188;35.640;139.748;2023-01-20T16:11:19;2;2;
64114;PMS5003;62188;35.640;139.748;2023-01-20T16:13:45;1;0;
64114;PMS5003;62188;35.640;139.748;2023-01-20T16:16:12;5;3;
64114;PMS5003;62188;35.640;139.748;2023-01-20T16:18:36;1;1;
64114;PMS5003;62188;35.640;139.748;2023-01-20T16:21:02;4;4;